Time;durP1;ratioP1;P1;durP2;ratioP2;P2;SDS_P1;SDS_P2;PMS_P1;PMS_P2;Temp;Humidity;BMP_temperature;BMP_pressure;BME280_temperature;BME280_humidity;BME280_pressure;Samples;Min_cycle;Max_cycle;Signal;HPM_P1;HPM_P2
2023/06/24 00:02:18;;;;;;;10.43;7.82;;;;;;;;;;5044532;28;20516;-76
2023/06/24 00:04:44;;;;;;;11.70;8.77;;;;;;;;;;5037506;28;20049;-76
2023/06/24 00:07:10;;;;;;;11.93;8.30;;;;;;;;;;5049744;28;20037;-76
2023/06/24 00:09:37;;;;;;;12.93;8.68;;;;;;;;;;5053276;28;20405;-77
2023/06/24 00:12:03;;;;;;;11.93;9.07;;;;;;;;;;5054196;28;20390;-76
2023/06/24 00:14:29;;;;;;;13.73;9.05;;;;;;;;;;5054216;28;20045;-76
2023/06/24 00:16:56;;;;;;;13.75;9.43;;;;;;;;;;5054065;28;20044;-76
2023/06/24 00:19:26;;;;;;;13.60;9.18;;;;;;;;;;5035958;28;20072;-77
2023/06/24 00:21:53;;;;;;;14.23;8.77;;;;;;;;;;5052992;28;20063;-76
2023/06/24 00:24:25;;;;;;;12.88;8.98;;;;;;;;;;5053950;28;20059;-76
2023/06/24 00:26:52;;;;;;;15.32;9.30;;;;;;;;;;5053969;28;20056;-76
2023/06/24 00:29:18;;;;;;;14.45;11.02;;;;;;;;;;5053857;28;20037;-77
2023/06/24 00:31:44;;;;;;;16.75;11.43;;;;;;;;;;5053364;28;20462;-77
2023/06/24 00:34:11;;;;;;;14.05;10.80;;;;;;;;;;5034713;28;20079;-77
2023/06/24 00:36:37;;;;;;;14.77;9.98;;;;;;;;;;5053634;28;20205;-77
2023/06/24 00:39:04;;;;;;;12.85;9.43;;;;;;;;;;5037071;28;20072;-77
2023/06/24 00:41:30;;;;;;;14.65;10.55;;;;;;;;;;5051196;28;20071;-77
2023/06/24 00:43:57;;;;;;;14.95;10.13;;;;;;;;;;5033634;28;20099;-77
2023/06/24 00:46:25;;;;;;;13.30;9.32;;;;;;;;;;5030245;28;20048;-77
2023/06/24 00:48:53;;;;;;;12.40;10.38;;;;;;;;;;5024922;28;20354;-77
2023/06/24 00:51:21;;;;;;;11.77;9.50;;;;;;;;;;5052562;28;20046;-77
2023/06/24 00:53:50;;;;;;;13.55;9.95;;;;;;;;;;5038071;28;20041;-77
2023/06/24 00:56:18;;;;;;;15.90;9.40;;;;;;;;;;5052953;28;20036;-77
2023/06/24 00:58:45;;;;;;;13.45;10.15;;;;;;;;;;5032514;28;20044;-77
2023/06/24 01:01:11;;;;;;;12.75;9.32;;;;;;;;;;5043458;28;20049;-77
2023/06/24 01:03:37;;;;;;;12.43;9.15;;;;;;;;;;5030778;28;20136;-77
2023/06/24 01:06:03;;;;;;;13.73;9.40;;;;;;;;;;5048800;28;20041;-77
2023/06/24 01:08:30;;;;;;;14.23;9.40;;;;;;;;;;5036805;28;20053;-77
2023/06/24 01:10:56;;;;;;;11.13;9.32;;;;;;;;;;5047128;28;20042;-77
2023/06/24 01:13:22;;;;;;;14.75;9.57;;;;;;;;;;5042462;28;20037;-77
2023/06/24 01:15:49;;;;;;;13.68;10.60;;;;;;;;;;5034478;28;20045;-77
2023/06/24 01:18:25;;;;;;;13.25;10.10;;;;;;;;;;5049963;28;20577;-77
2023/06/24 01:20:54;;;;;;;12.55;10.07;;;;;;;;;;5033636;28;20072;-77
2023/06/24 01:23:39;;;;;;;13.35;9.77;;;;;;;;;;5045065;28;20083;-77
2023/06/24 01:26:21;;;;;;;15.77;10.48;;;;;;;;;;5051102;28;20045;-77
2023/06/24 01:29:06;;;;;;;17.90;11.65;;;;;;;;;;5032011;28;20401;-77
2023/06/24 01:31:42;;;;;;;17.38;11.25;;;;;;;;;;5051595;28;20056;-77
2023/06/24 01:34:08;;;;;;;;;;;;;;;;;;5052773;28;20036;-76
2023/06/24 01:36:37;;;;;;;14.55;11.45;;;;;;;;;;5051421;28;20304;-77
2023/06/24 01:39:04;;;;;;;16.90;11.88;;;;;;;;;;5045372;28;20120;-77
2023/06/24 01:41:41;;;;;;;14.02;11.85;;;;;;;;;;5022819;28;20041;-77
2023/06/24 01:44:10;;;;;;;16.75;12.30;;;;;;;;;;5042682;28;20053;-77
2023/06/24 01:46:37;;;;;;;15.80;12.07;;;;;;;;;;5042583;28;20045;-77
2023/06/24 01:49:04;;;;;;;15.75;12.20;;;;;;;;;;5036052;28;20049;-77
2023/06/24 01:51:31;;;;;;;15.55;12.40;;;;;;;;;;5044686;28;20421;-76
2023/06/24 01:54:03;;;;;;;17.33;12.27;;;;;;;;;;5014657;28;20401;-77
2023/06/24 01:56:29;;;;;;;15.32;12.27;;;;;;;;;;5041803;28;20106;-76
2023/06/24 01:58:57;;;;;;;15.60;12.57;;;;;;;;;;5050460;28;20203;-76
2023/06/24 02:01:24;;;;;;;16.25;12.35;;;;;;;;;;5043003;28;20037;-76
2023/06/24 02:03:51;;;;;;;14.50;12.52;;;;;;;;;;5049859;28;20528;-76
2023/06/24 02:06:17;;;;;;;15.88;12.57;;;;;;;;;;5040897;28;20417;-76
2023/06/24 02:08:44;;;;;;;19.73;12.27;;;;;;;;;;5041104;28;20057;-76
2023/06/24 02:11:11;;;;;;;18.08;13.57;;;;;;;;;;5044081;28;20482;-76
2023/06/24 02:13:39;;;;;;;18.25;14.27;;;;;;;;;;5051013;28;20099;-76
2023/06/24 02:16:08;;;;;;;21.05;14.63;;;;;;;;;;5049416;28;20049;-76
2023/06/24 02:18:38;;;;;;;18.73;14.25;;;;;;;;;;5051336;28;20049;-76
2023/06/24 02:21:05;;;;;;;21.70;15.38;;;;;;;;;;5050179;28;20126;-76
2023/06/24 02:23:31;;;;;;;21.08;14.70;;;;;;;;;;5050084;28;20052;-76
2023/06/24 02:25:58;;;;;;;18.58;14.00;;;;;;;;;;5029562;28;20103;-77
2023/06/24 02:28:25;;;;;;;20.77;14.40;;;;;;;;;;5049079;28;20102;-76
2023/06/24 02:30:51;;;;;;;21.65;14.23;;;;;;;;;;5050799;28;20045;-76
2023/06/24 02:33:18;;;;;;;20.27;14.32;;;;;;;;;;5051415;28;20033;-76
2023/06/24 02:35:45;;;;;;;19.52;13.55;;;;;;;;;;5046745;28;20045;-76
2023/06/24 02:38:12;;;;;;;19.20;13.77;;;;;;;;;;5039554;28;20499;-76
2023/06/24 02:40:43;;;;;;;20.08;14.00;;;;;;;;;;5028905;28;20124;-76
2023/06/24 02:43:10;;;;;;;17.70;13.70;;;;;;;;;;5045646;28;20041;-76
2023/06/24 02:45:36;;;;;;;20.52;14.13;;;;;;;;;;5041523;28;20118;-76
2023/06/24 02:48:02;;;;;;;18.75;13.82;;;;;;;;;;5051396;28;20045;-74
2023/06/24 02:50:28;;;;;;;18.08;13.40;;;;;;;;;;5033532;28;20045;-77
2023/06/24 02:52:55;;;;;;;21.02;14.05;;;;;;;;;;5034153;28;20071;-75
2023/06/24 02:55:22;;;;;;;17.83;13.50;;;;;;;;;;5051603;28;20408;-76
2023/06/24 02:57:48;;;;;;;19.23;14.07;;;;;;;;;;5050218;28;20044;-76
2023/06/24 03:00:14;;;;;;;17.65;14.43;;;;;;;;;;5055285;28;20095;-75
2023/06/24 03:02:45;;;;;;;19.95;14.38;;;;;;;;;;5054271;28;20057;-76
2023/06/24 03:05:11;;;;;;;20.52;14.75;;;;;;;;;;5053546;28;20053;-75
2023/06/24 03:07:38;;;;;;;20.15;14.98;;;;;;;;;;5050443;28;20421;-75
2023/06/24 03:10:05;;;;;;;20.48;14.57;;;;;;;;;;5036793;28;20065;-76
2023/06/24 03:12:31;;;;;;;21.42;14.95;;;;;;;;;;5054218;28;20412;-75
2023/06/24 03:15:00;;;;;;;19.73;14.35;;;;;;;;;;5053650;28;20048;-76
2023/06/24 03:17:27;;;;;;;18.83;14.43;;;;;;;;;;5045024;28;20107;-76
2023/06/24 03:19:53;;;;;;;18.35;13.77;;;;;;;;;;5054587;28;20045;-76
2023/06/24 03:22:19;;;;;;;18.13;14.10;;;;;;;;;;5055566;28;20051;-75
2023/06/24 03:24:45;;;;;;;16.30;13.35;;;;;;;;;;5046095;28;20481;-75
2023/06/24 03:27:12;;;;;;;17.85;12.88;;;;;;;;;;5042647;28;20040;-76
2023/06/24 03:29:38;;;;;;;17.83;12.75;;;;;;;;;;5037631;28;20077;-76
2023/06/24 03:32:05;;;;;;;14.90;11.95;;;;;;;;;;5050349;28;20315;-76
2023/06/24 03:34:31;;;;;;;17.73;11.45;;;;;;;;;;5034704;28;20048;-76
2023/06/24 03:36:57;;;;;;;14.27;11.15;;;;;;;;;;5054707;28;20080;-76
2023/06/24 03:39:23;;;;;;;17.40;12.50;;;;;;;;;;5033161;28;20044;-76
2023/06/24 03:41:49;;;;;;;16.42;12.60;;;;;;;;;;5044797;28;20052;-76
2023/06/24 03:44:15;;;;;;;14.52;12.35;;;;;;;;;;5034720;28;20044;-76
2023/06/24 03:46:41;;;;;;;15.38;11.90;;;;;;;;;;5017079;28;20042;-76
2023/06/24 03:49:08;;;;;;;16.85;13.20;;;;;;;;;;5015811;28;20042;-76
2023/06/24 03:51:34;;;;;;;16.98;12.23;;;;;;;;;;5040809;28;20524;-76
2023/06/24 03:54:00;;;;;;;20.50;12.90;;;;;;;;;;5053680;28;20045;-76
2023/06/24 03:56:26;;;;;;;16.00;11.32;;;;;;;;;;5036787;28;20551;-76
2023/06/24 03:58:53;;;;;;;13.95;11.75;;;;;;;;;;5052484;28;20049;-76
2023/06/24 04:01:19;;;;;;;15.35;11.98;;;;;;;;;;5053717;28;20074;-76
2023/06/24 04:03:45;;;;;;;15.43;11.00;;;;;;;;;;5048207;28;20059;-76
2023/06/24 04:06:12;;;;;;;14.45;10.82;;;;;;;;;;5047371;28;20128;-76
2023/06/24 04:08:39;;;;;;;20.88;10.82;;;;;;;;;;5033846;28;20085;-76
2023/06/24 04:11:06;;;;;;;16.65;11.20;;;;;;;;;;5042849;28;20460;-76
2023/06/24 04:13:33;;;;;;;15.43;10.77;;;;;;;;;;5052551;28;20044;-76
2023/06/24 04:15:59;;;;;;;14.23;10.95;;;;;;;;;;5052596;28;20071;-76
2023/06/24 04:18:25;;;;;;;12.80;10.82;;;;;;;;;;5053567;28;20044;-76
2023/06/24 04:20:52;;;;;;;14.57;10.15;;;;;;;;;;5053911;28;20102;-76
2023/06/24 04:23:18;;;;;;;15.40;10.38;;;;;;;;;;5053366;28;20048;-76
2023/06/24 04:25:44;;;;;;;13.27;10.35;;;;;;;;;;5034354;28;20088;-76
2023/06/24 04:28:10;;;;;;;14.90;10.18;;;;;;;;;;5033869;28;20083;-75
2023/06/24 04:30:38;;;;;;;12.20;9.60;;;;;;;;;;5033552;28;20414;-76
2023/06/24 04:33:04;;;;;;;11.30;9.75;;;;;;;;;;5016018;28;20056;-76
2023/06/24 04:35:31;;;;;;;12.57;9.80;;;;;;;;;;5050549;28;20064;-76
2023/06/24 04:37:57;;;;;;;15.60;9.77;;;;;;;;;;5051024;28;20040;-76
2023/06/24 04:40:23;;;;;;;13.18;9.70;;;;;;;;;;5052677;28;20441;-76
2023/06/24 04:42:49;;;;;;;14.65;9.15;;;;;;;;;;5053773;28;20103;-76
2023/06/24 04:45:15;;;;;;;11.32;9.38;;;;;;;;;;5040018;28;20470;-76
2023/06/24 04:47:41;;;;;;;11.77;8.80;;;;;;;;;;5035350;28;20155;-76
2023/06/24 04:50:11;;;;;;;12.50;9.23;;;;;;;;;;5050627;28;20083;-76
2023/06/24 04:52:37;;;;;;;12.43;8.73;;;;;;;;;;5036420;28;20056;-76
2023/06/24 04:55:03;;;;;;;11.60;8.75;;;;;;;;;;5046745;28;20370;-76
2023/06/24 04:57:30;;;;;;;14.15;9.70;;;;;;;;;;5053391;28;20044;-76
2023/06/24 04:59:57;;;;;;;14.98;9.25;;;;;;;;;;5039375;28;20080;-76
2023/06/24 05:02:24;;;;;;;12.73;9.35;;;;;;;;;;5051494;28;20090;-76
2023/06/24 05:04:50;;;;;;;13.32;9.30;;;;;;;;;;5052777;28;20049;-76
2023/06/24 05:07:16;;;;;;;17.00;8.68;;;;;;;;;;5041045;28;20060;-79
2023/06/24 05:09:43;;;;;;;14.77;10.60;;;;;;;;;;5042951;28;20053;-82
2023/06/24 05:12:10;;;;;;;13.05;9.20;;;;;;;;;;5051835;28;20052;-81
2023/06/24 05:14:36;;;;;;;13.18;10.35;;;;;;;;;;5048443;28;20086;-80
2023/06/24 05:17:03;;;;;;;12.88;9.82;;;;;;;;;;5036192;28;20401;-81
2023/06/24 05:19:29;;;;;;;13.48;9.50;;;;;;;;;;5048791;28;20478;-80
2023/06/24 05:21:55;;;;;;;11.98;9.48;;;;;;;;;;5050393;28;20091;-80
2023/06/24 05:24:21;;;;;;;12.27;9.35;;;;;;;;;;5050935;28;20049;-81
2023/06/24 05:26:49;;;;;;;14.88;10.32;;;;;;;;;;5040058;28;20049;-80
2023/06/24 05:29:16;;;;;;;13.52;9.60;;;;;;;;;;5052327;28;20049;-82
2023/06/24 05:31:42;;;;;;;13.95;9.80;;;;;;;;;;5051877;28;20049;-81
2023/06/24 05:34:08;;;;;;;14.82;10.15;;;;;;;;;;5032465;28;20537;-82
2023/06/24 05:36:34;;;;;;;14.70;9.65;;;;;;;;;;5033107;28;20401;-81
2023/06/24 05:39:00;;;;;;;14.45;9.70;;;;;;;;;;5031862;28;20051;-82
2023/06/24 05:41:26;;;;;;;15.32;9.65;;;;;;;;;;5014757;28;20041;-82
2023/06/24 05:44:03;;;;;;;11.13;9.20;;;;;;;;;;5039326;28;20040;-81
2023/06/24 05:46:29;;;;;;;12.90;9.70;;;;;;;;;;5033802;28;20124;-81
2023/06/24 05:48:55;;;;;;;14.45;9.13;;;;;;;;;;5050048;28;20033;-78
2023/06/24 05:51:21;;;;;;;10.98;9.50;;;;;;;;;;5033114;28;20056;-75
2023/06/24 05:53:47;;;;;;;14.88;10.15;;;;;;;;;;5052181;28;20092;-75
2023/06/24 05:56:13;;;;;;;14.68;9.57;;;;;;;;;;5052069;28;20393;-74
2023/06/24 05:58:40;;;;;;;11.20;9.50;;;;;;;;;;5051365;28;20476;-76
2023/06/24 06:01:07;;;;;;;13.90;9.98;;;;;;;;;;5049688;28;20041;-76
2023/06/24 06:03:33;;;;;;;12.60;9.80;;;;;;;;;;5032215;28;20041;-76
2023/06/24 06:06:00;;;;;;;13.18;8.93;;;;;;;;;;5034304;28;20049;-76
2023/06/24 06:08:26;;;;;;;12.50;9.23;;;;;;;;;;5049647;28;20045;-76
2023/06/24 06:10:52;;;;;;;10.75;9.23;;;;;;;;;;5046309;28;20425;-76
2023/06/24 06:13:18;;;;;;;12.32;9.93;;;;;;;;;;5031729;28;20041;-76
2023/06/24 06:15:44;;;;;;;13.55;9.43;;;;;;;;;;5032287;28;20069;-76
2023/06/24 06:18:10;;;;;;;14.32;9.60;;;;;;;;;;5025065;28;20572;-76
2023/06/24 06:20:36;;;;;;;12.32;9.45;;;;;;;;;;5050446;28;20044;-76
2023/06/24 06:23:03;;;;;;;14.85;10.30;;;;;;;;;;5044090;28;20058;-76
2023/06/24 06:25:29;;;;;;;13.88;9.80;;;;;;;;;;5032219;28;20064;-76
2023/06/24 06:27:55;;;;;;;15.68;10.27;;;;;;;;;;5040592;28;20049;-76
2023/06/24 06:30:21;;;;;;;13.38;9.63;;;;;;;;;;5051589;28;20057;-76
2023/06/24 06:32:47;;;;;;;15.30;10.02;;;;;;;;;;5056214;28;20090;-76
2023/06/24 06:35:13;;;;;;;15.57;9.93;;;;;;;;;;5056250;28;20048;-76
2023/06/24 06:37:39;;;;;;;14.02;9.75;;;;;;;;;;5031363;28;20076;-76
2023/06/24 06:40:06;;;;;;;12.95;9.57;;;;;;;;;;5053520;28;20037;-76
2023/06/24 06:42:32;;;;;;;11.35;9.52;;;;;;;;;;5056114;28;20044;-76
2023/06/24 06:44:58;;;;;;;14.10;10.00;;;;;;;;;;5054893;28;20094;-76
2023/06/24 06:47:24;;;;;;;11.77;8.75;;;;;;;;;;5047421;28;20440;-76
2023/06/24 06:49:50;;;;;;;13.88;9.35;;;;;;;;;;5055040;28;20041;-76
2023/06/24 06:52:17;;;;;;;15.60;9.70;;;;;;;;;;5051881;28;20093;-76
2023/06/24 06:54:43;;;;;;;13.02;9.45;;;;;;;;;;5050222;28;20041;-76
2023/06/24 06:57:09;;;;;;;12.50;9.20;;;;;;;;;;5036229;28;20102;-76
2023/06/24 06:59:35;;;;;;;13.10;9.60;;;;;;;;;;5045975;28;20045;-77
2023/06/24 07:02:01;;;;;;;13.70;9.57;;;;;;;;;;5053843;28;20049;-76
2023/06/24 07:04:27;;;;;;;12.48;9.50;;;;;;;;;;5055122;28;20038;-76
2023/06/24 07:06:53;;;;;;;12.50;8.95;;;;;;;;;;5056487;28;20049;-76
2023/06/24 07:09:20;;;;;;;13.45;9.77;;;;;;;;;;5047651;28;20087;-77
2023/06/24 07:11:46;;;;;;;14.63;9.45;;;;;;;;;;5053276;28;20056;-78
2023/06/24 07:14:12;;;;;;;12.10;9.27;;;;;;;;;;5053193;28;20049;-76
2023/06/24 07:16:38;;;;;;;14.23;9.35;;;;;;;;;;5058279;28;20127;-76
2023/06/24 07:19:04;;;;;;;10.50;9.15;;;;;;;;;;5054293;28;20041;-76
2023/06/24 07:21:30;;;;;;;13.13;9.75;;;;;;;;;;5055437;28;20053;-76
2023/06/24 07:23:57;;;;;;;11.57;9.10;;;;;;;;;;5050480;28;20095;-77
2023/06/24 07:26:23;;;;;;;12.68;8.98;;;;;;;;;;5039949;28;20393;-76
2023/06/24 07:28:49;;;;;;;12.70;9.27;;;;;;;;;;5054548;28;20041;-76
2023/06/24 07:31:15;;;;;;;12.27;8.43;;;;;;;;;;5054435;28;20130;-76
2023/06/24 07:33:42;;;;;;;10.80;8.43;;;;;;;;;;5035462;28;20071;-77
2023/06/24 07:36:08;;;;;;;13.00;8.95;;;;;;;;;;5054686;28;20049;-77
2023/06/24 07:38:34;;;;;;;10.98;8.60;;;;;;;;;;5036603;28;20041;-77
2023/06/24 07:41:00;;;;;;;12.82;7.60;;;;;;;;;;5055010;28;20386;-77
2023/06/24 07:43:26;;;;;;;11.85;8.38;;;;;;;;;;5036926;28;20091;-77
2023/06/24 07:45:52;;;;;;;11.63;7.13;;;;;;;;;;5040979;28;20049;-80
2023/06/24 07:48:18;;;;;;;11.32;8.10;;;;;;;;;;5034600;28;20037;-80
2023/06/24 07:50:44;;;;;;;10.32;7.18;;;;;;;;;;5016148;28;20068;-81
2023/06/24 07:53:10;;;;;;;9.57;6.97;;;;;;;;;;5040212;28;20446;-82
2023/06/24 07:55:36;;;;;;;12.05;6.95;;;;;;;;;;5026974;28;20076;-82
2023/06/24 07:58:03;;;;;;;9.45;6.43;;;;;;;;;;5054326;28;20115;-81
2023/06/24 08:00:29;;;;;;;12.02;6.68;;;;;;;;;;5036752;28;20112;-82
2023/06/24 08:02:55;;;;;;;9.57;6.80;;;;;;;;;;5022565;28;20053;-82
2023/06/24 08:05:21;;;;;;;8.68;6.13;;;;;;;;;;5053939;28;20052;-81
2023/06/24 08:07:47;;;;;;;11.30;6.40;;;;;;;;;;5028706;28;20489;-82
2023/06/24 08:10:14;;;;;;;9.45;6.65;;;;;;;;;;5032522;28;20084;-80
2023/06/24 08:12:40;;;;;;;9.48;6.72;;;;;;;;;;5039064;28;20046;-82
2023/06/24 08:15:06;;;;;;;9.10;7.13;;;;;;;;;;5016520;28;20116;-80
2023/06/24 08:17:33;;;;;;;7.10;5.50;;;;;;;;;;5040670;28;20095;-79
2023/06/24 08:19:59;;;;;;;10.07;6.50;;;;;;;;;;5034995;28;20056;-79
2023/06/24 08:22:25;;;;;;;9.55;6.10;;;;;;;;;;5052520;28;20474;-82
2023/06/24 08:24:51;;;;;;;8.70;6.20;;;;;;;;;;5053980;28;20126;-82
2023/06/24 08:27:17;;;;;;;9.27;6.15;;;;;;;;;;5035500;28;20045;-81
2023/06/24 08:29:43;;;;;;;9.43;6.18;;;;;;;;;;5034400;28;20497;-81
2023/06/24 08:32:09;;;;;;;9.43;5.45;;;;;;;;;;5036742;28;20039;-75
2023/06/24 08:34:35;;;;;;;9.55;5.15;;;;;;;;;;5045979;28;20049;-75
2023/06/24 08:37:01;;;;;;;8.02;5.38;;;;;;;;;;5049516;28;20140;-75
2023/06/24 08:39:28;;;;;;;12.75;5.82;;;;;;;;;;5031846;28;20056;-83
2023/06/24 08:41:54;;;;;;;13.95;5.68;;;;;;;;;;5026952;28;20053;-83
2023/06/24 08:44:20;;;;;;;9.45;5.47;;;;;;;;;;5028613;28;20045;-83
2023/06/24 08:46:46;;;;;;;8.10;5.47;;;;;;;;;;5033600;28;20482;-82
2023/06/24 08:49:16;;;;;;;13.18;5.68;;;;;;;;;;5015861;28;20371;-83
2023/06/24 08:51:45;;;;;;;8.70;5.07;;;;;;;;;;5015984;28;20047;-83
2023/06/24 08:54:15;;;;;;;7.88;5.50;;;;;;;;;;5015576;28;20051;-83
2023/06/24 08:56:41;;;;;;;7.10;5.18;;;;;;;;;;5034089;28;20132;-83
2023/06/24 08:59:09;;;;;;;8.68;5.55;;;;;;;;;;5032960;28;20088;-84
2023/06/24 09:01:35;;;;;;;7.78;5.38;;;;;;;;;;5033509;28;20041;-84
2023/06/24 09:04:01;;;;;;;7.93;4.90;;;;;;;;;;5015752;28;20136;-83
2023/06/24 09:06:27;;;;;;;9.13;5.45;;;;;;;;;;5016516;28;20049;-84
2023/06/24 09:08:54;;;;;;;7.45;4.45;;;;;;;;;;5033302;28;20157;-83
2023/06/24 09:11:31;;;;;;;7.80;5.43;;;;;;;;;;5016232;28;20059;-83
2023/06/24 09:13:58;;;;;;;9.43;5.20;;;;;;;;;;5019652;28;20481;-83
2023/06/24 09:16:24;;;;;;;7.50;5.43;;;;;;;;;;5049296;28;20048;-83
2023/06/24 09:18:51;;;;;;;7.38;5.15;;;;;;;;;;5034018;28;20049;-83
2023/06/24 09:21:24;;;;;;;8.77;5.53;;;;;;;;;;5018333;28;20474;-83
2023/06/24 09:23:54;;;;;;;8.23;4.57;;;;;;;;;;5023353;28;20056;-83
2023/06/24 09:26:23;;;;;;;6.85;4.75;;;;;;;;;;5041221;28;20053;-82
2023/06/24 09:28:50;;;;;;;6.38;4.78;;;;;;;;;;5033191;28;20106;-81
2023/06/24 09:31:18;;;;;;;7.97;5.07;;;;;;;;;;5034953;28;20085;-81
2023/06/24 09:33:44;;;;;;;9.00;5.18;;;;;;;;;;5035151;28;20041;-83
2023/06/24 09:36:14;;;;;;;8.07;5.32;;;;;;;;;;5051300;28;20198;-84
2023/06/24 09:38:42;;;;;;;7.82;5.65;;;;;;;;;;5049671;28;20404;-82
2023/06/24 09:41:09;;;;;;;8.05;5.18;;;;;;;;;;5034644;28;20072;-82
2023/06/24 09:43:36;;;;;;;9.05;5.57;;;;;;;;;;5033442;28;20560;-82
2023/06/24 09:46:03;;;;;;;8.60;5.00;;;;;;;;;;5034637;28;20053;-82
2023/06/24 09:48:29;;;;;;;10.07;4.97;;;;;;;;;;5034830;28;20123;-83
2023/06/24 09:50:59;;;;;;;8.05;4.93;;;;;;;;;;5033459;28;20394;-82
2023/06/24 09:53:26;;;;;;;9.50;5.57;;;;;;;;;;5033733;28;20575;-83
2023/06/24 09:55:53;;;;;;;9.25;5.65;;;;;;;;;;5032171;28;20136;-83
2023/06/24 09:58:20;;;;;;;7.43;5.45;;;;;;;;;;5032638;28;20501;-84
2023/06/24 10:00:46;;;;;;;10.18;6.25;;;;;;;;;;5032606;28;20049;-82
2023/06/24 10:03:12;;;;;;;8.38;5.07;;;;;;;;;;5034448;28;20041;-83
2023/06/24 10:05:39;;;;;;;7.93;5.00;;;;;;;;;;5053433;28;20051;-83
2023/06/24 10:08:05;;;;;;;9.50;4.78;;;;;;;;;;5037819;28;20041;-84
2023/06/24 10:10:31;;;;;;;7.70;4.63;;;;;;;;;;5055012;28;20045;-84
2023/06/24 10:12:58;;;;;;;9.50;5.38;;;;;;;;;;5055997;28;20041;-83
2023/06/24 10:15:24;;;;;;;9.68;5.07;;;;;;;;;;5056777;28;20044;-84
2023/06/24 10:17:53;;;;;;;7.22;4.53;;;;;;;;;;5033932;28;20135;-84
2023/06/24 10:20:26;;;;;;;7.40;4.22;;;;;;;;;;5052943;28;20098;-84
2023/06/24 10:22:53;;;;;;;7.35;4.30;;;;;;;;;;5035943;28;20041;-83
2023/06/24 10:25:19;;;;;;;7.43;4.30;;;;;;;;;;5032503;28;20037;-83
2023/06/24 10:27:45;;;;;;;9.25;4.22;;;;;;;;;;5039045;28;20040;-83
2023/06/24 10:30:23;;;;;;;8.10;4.28;;;;;;;;;;5056028;28;20059;-83
2023/06/24 10:32:53;;;;;;;8.20;4.57;;;;;;;;;;5055030;28;20503;-83
2023/06/24 10:35:24;;;;;;;7.05;4.22;;;;;;;;;;5035492;28;20450;-83
2023/06/24 10:37:54;;;;;;;6.15;4.20;;;;;;;;;;5036281;28;20044;-83
2023/06/24 10:40:34;;;;;;;5.65;3.75;;;;;;;;;;5038237;28;20057;-81
2023/06/24 10:43:01;;;;;;;6.10;3.55;;;;;;;;;;5035599;28;20056;-81
2023/06/24 10:45:27;;;;;;;8.23;3.90;;;;;;;;;;5056022;28;20041;-82
2023/06/24 10:47:56;;;;;;;5.70;3.72;;;;;;;;;;5053554;28;20115;-82
2023/06/24 10:50:23;;;;;;;8.05;4.10;;;;;;;;;;5036752;28;20041;-81
2023/06/24 10:52:55;;;;;;;6.15;4.07;;;;;;;;;;5021484;28;20050;-74
2023/06/24 10:55:22;;;;;;;9.48;4.10;;;;;;;;;;5016443;28;20073;-73
2023/06/24 10:57:48;;;;;;;6.90;4.40;;;;;;;;;;5033827;28;20180;-73
2023/06/24 11:00:15;;;;;;;7.18;3.83;;;;;;;;;;5017154;28;20076;-74
2023/06/24 11:02:41;;;;;;;8.40;3.90;;;;;;;;;;5033669;28;20509;-74
2023/06/24 11:05:08;;;;;;;6.22;3.83;;;;;;;;;;5035032;28;20053;-74
2023/06/24 11:07:36;;;;;;;7.93;4.80;;;;;;;;;;5035299;28;20133;-73
2023/06/24 11:10:04;;;;;;;9.55;4.50;;;;;;;;;;5037904;28;20506;-73
2023/06/24 11:12:32;;;;;;;5.45;3.97;;;;;;;;;;5037988;28;20582;-74
2023/06/24 11:14:58;;;;;;;6.47;3.90;;;;;;;;;;5017220;28;20081;-74
2023/06/24 11:17:25;;;;;;;5.82;4.18;;;;;;;;;;5040097;28;20037;-75
2023/06/24 11:19:52;;;;;;;7.72;4.13;;;;;;;;;;5035541;28;20044;-75
2023/06/24 11:22:19;;;;;;;5.22;4.00;;;;;;;;;;5055010;28;20114;-75
2023/06/24 11:24:45;;;;;;;5.25;3.92;;;;;;;;;;5036912;28;20041;-75
2023/06/24 11:27:11;;;;;;;7.07;3.80;;;;;;;;;;5035584;28;20049;-74
2023/06/24 11:29:37;;;;;;;5.78;3.58;;;;;;;;;;5036762;28;20378;-73
2023/06/24 11:32:03;;;;;;;5.10;3.42;;;;;;;;;;5054830;28;20439;-74
2023/06/24 11:34:30;;;;;;;5.03;3.25;;;;;;;;;;5052824;28;20409;-73
2023/06/24 11:36:56;;;;;;;8.38;3.90;;;;;;;;;;5054204;28;20112;-74
2023/06/24 11:39:23;;;;;;;5.32;3.50;;;;;;;;;;5054332;28;20072;-74
2023/06/24 11:41:49;;;;;;;6.68;3.42;;;;;;;;;;5036546;28;20413;-75
2023/06/24 11:44:17;;;;;;;7.18;3.13;;;;;;;;;;5054254;28;20045;-74
2023/06/24 11:46:43;;;;;;;5.70;3.58;;;;;;;;;;5053922;28;20573;-74
2023/06/24 11:49:10;;;;;;;5.43;3.50;;;;;;;;;;5054361;28;20056;-74
2023/06/24 11:51:36;;;;;;;5.07;3.13;;;;;;;;;;5036134;28;20103;-74
2023/06/24 11:54:03;;;;;;;8.45;3.78;;;;;;;;;;5053948;28;20558;-74
2023/06/24 11:56:36;;;;;;;6.22;3.50;;;;;;;;;;5053918;28;20045;-74
2023/06/24 11:59:06;;;;;;;5.75;3.30;;;;;;;;;;5054090;28;20051;-74
2023/06/24 12:01:32;;;;;;;5.47;3.35;;;;;;;;;;5054137;28;20132;-73
2023/06/24 12:04:01;;;;;;;6.35;3.10;;;;;;;;;;5053895;28;20041;-75
2023/06/24 12:06:27;;;;;;;6.70;3.00;;;;;;;;;;5053779;28;20048;-75
2023/06/24 12:08:53;;;;;;;5.18;3.30;;;;;;;;;;5053584;28;20060;-75
2023/06/24 12:11:20;;;;;;;6.38;3.20;;;;;;;;;;5053786;28;20052;-75
2023/06/24 12:13:46;;;;;;;4.55;2.90;;;;;;;;;;5035877;28;20516;-75
2023/06/24 12:16:12;;;;;;;4.53;3.08;;;;;;;;;;5035859;28;20446;-75
2023/06/24 12:18:38;;;;;;;4.25;2.80;;;;;;;;;;5053478;28;20041;-75
2023/06/24 12:21:04;;;;;;;5.63;2.97;;;;;;;;;;5052012;28;20091;-75
2023/06/24 12:23:30;;;;;;;8.20;3.47;;;;;;;;;;5052802;28;20044;-75
2023/06/24 12:25:56;;;;;;;7.57;3.10;;;;;;;;;;5053692;28;20557;-75
2023/06/24 12:28:23;;;;;;;5.47;3.13;;;;;;;;;;5052292;28;20040;-74
2023/06/24 12:30:49;;;;;;;7.80;3.50;;;;;;;;;;5035226;28;20044;-74
2023/06/24 12:33:18;;;;;;;7.30;4.05;;;;;;;;;;5053409;28;20054;-74
2023/06/24 12:35:45;;;;;;;7.05;3.78;;;;;;;;;;5053247;28;20417;-74
2023/06/24 12:38:11;;;;;;;7.10;3.53;;;;;;;;;;5049696;28;20126;-74
2023/06/24 12:40:37;;;;;;;5.55;3.17;;;;;;;;;;5052753;28;20041;-75
2023/06/24 12:43:04;;;;;;;5.28;3.20;;;;;;;;;;5052925;28;20080;-74
2023/06/24 12:45:30;;;;;;;5.47;2.97;;;;;;;;;;5053271;28;20056;-75
2023/06/24 12:47:56;;;;;;;5.38;3.30;;;;;;;;;;5053138;28;20131;-74
2023/06/24 12:50:22;;;;;;;7.68;3.30;;;;;;;;;;5052360;28;20059;-74
2023/06/24 12:52:49;;;;;;;6.22;3.42;;;;;;;;;;5051218;28;20044;-74
2023/06/24 12:55:15;;;;;;;7.30;3.50;;;;;;;;;;5050776;28;20132;-75
2023/06/24 12:57:41;;;;;;;5.85;3.38;;;;;;;;;;5034863;28;20151;-75
2023/06/24 13:00:08;;;;;;;5.03;3.00;;;;;;;;;;5052777;28;20060;-74
2023/06/24 13:02:34;;;;;;;6.32;3.55;;;;;;;;;;5051127;28;20090;-74
2023/06/24 13:05:01;;;;;;;5.38;3.53;;;;;;;;;;5032034;28;20045;-84
2023/06/24 13:07:27;;;;;;;5.07;3.58;;;;;;;;;;5042505;28;20049;-83
2023/06/24 13:09:53;;;;;;;5.25;3.25;;;;;;;;;;5035722;28;20061;-84
2023/06/24 13:12:20;;;;;;;8.20;3.83;;;;;;;;;;5016826;28;20049;-83
2023/06/24 13:14:46;;;;;;;6.85;4.10;;;;;;;;;;5051920;28;20117;-83
2023/06/24 13:17:13;;;;;;;8.20;3.75;;;;;;;;;;5035123;28;20040;-84
2023/06/24 13:19:39;;;;;;;11.00;4.00;;;;;;;;;;5034846;28;20130;-82
2023/06/24 13:22:05;;;;;;;8.05;4.30;;;;;;;;;;5034942;28;20051;-83
2023/06/24 13:24:31;;;;;;;7.00;3.63;;;;;;;;;;5034757;28;20450;-83
2023/06/24 13:26:57;;;;;;;5.85;3.58;;;;;;;;;;5015604;28;20052;-83
2023/06/24 13:29:23;;;;;;;5.63;3.30;;;;;;;;;;5048016;28;20094;-83
2023/06/24 13:31:49;;;;;;;8.85;3.70;;;;;;;;;;5035061;28;20045;-82
2023/06/24 13:34:16;;;;;;;5.68;3.60;;;;;;;;;;5035069;28;20131;-83
2023/06/24 13:36:42;;;;;;;6.28;3.42;;;;;;;;;;5034848;28;20128;-83
2023/06/24 13:39:13;;;;;;;8.48;3.40;;;;;;;;;;5034536;28;20049;-84
2023/06/24 13:41:39;;;;;;;5.32;3.33;;;;;;;;;;5034966;28;20068;-85
2023/06/24 13:44:05;;;;;;;5.65;3.25;;;;;;;;;;5051877;28;20072;-84
2023/06/24 13:46:32;;;;;;;5.53;3.42;;;;;;;;;;5035167;28;20048;-83
2023/06/24 13:48:59;;;;;;;5.82;3.40;;;;;;;;;;5034969;28;20036;-82
2023/06/24 13:51:25;;;;;;;5.80;3.20;;;;;;;;;;5034911;28;20045;-84
2023/06/24 13:53:52;;;;;;;4.57;3.10;;;;;;;;;;5042439;28;20402;-81
2023/06/24 13:56:19;;;;;;;5.65;3.10;;;;;;;;;;5032639;28;20057;-82
2023/06/24 13:58:46;;;;;;;4.50;2.75;;;;;;;;;;5032858;28;20080;-83
2023/06/24 14:01:12;;;;;;;6.07;2.70;;;;;;;;;;5032311;28;20541;-82
2023/06/24 14:03:39;;;;;;;4.57;2.72;;;;;;;;;;5014969;28;20068;-83
2023/06/24 14:06:05;;;;;;;5.25;3.10;;;;;;;;;;5032760;28;20049;-82
2023/06/24 14:08:32;;;;;;;3.65;2.63;;;;;;;;;;5031146;28;20046;-84
2023/06/24 14:10:58;;;;;;;5.63;2.70;;;;;;;;;;5038411;28;20104;-82
2023/06/24 14:13:26;;;;;;;4.43;2.78;;;;;;;;;;5051057;28;20045;-82
2023/06/24 14:15:52;;;;;;;4.53;2.88;;;;;;;;;;5043573;28;20046;-81
2023/06/24 14:18:18;;;;;;;4.65;2.88;;;;;;;;;;5027296;28;20041;-82
2023/06/24 14:20:44;;;;;;;4.03;2.53;;;;;;;;;;5033334;28;20370;-82
2023/06/24 14:23:11;;;;;;;4.88;2.65;;;;;;;;;;5032630;28;20232;-82
2023/06/24 14:25:37;;;;;;;5.40;2.78;;;;;;;;;;5015959;28;20470;-82
2023/06/24 14:28:06;;;;;;;4.28;2.45;;;;;;;;;;5035897;28;20049;-82
2023/06/24 14:30:34;;;;;;;7.72;2.72;;;;;;;;;;5037607;28;20041;-81
2023/06/24 14:33:01;;;;;;;6.95;3.10;;;;;;;;;;5034836;28;20040;-82